Time;durP1;ratioP1;P1;durP2;ratioP2;P2;SDS_P1;SDS_P2;PMS_P1;PMS_P2;Temp;Humidity;BMP_temperature;BMP_pressure;BME280_temperature;BME280_humidity;BME280_pressure;Samples;Min_cycle;Max_cycle;Signal;HPM_P1;HPM_P2
2022/08/16 00:00:42;;;;;;;2.72;2.50;;;26.60;62.10;;;;;;5053609;28;20060;-55
2022/08/16 00:03:09;;;;;;;3.00;2.70;;;;;;;;;;5053298;28;20049;-55
2022/08/16 00:05:35;;;;;;;3.92;2.75;;;;;;;;;;5053526;28;20388;-55
2022/08/16 00:08:01;;;;;;;2.80;2.40;;;;;;;;;;5053524;28;20062;-55
2022/08/16 00:10:31;;;;;;;2.90;2.70;;;26.80;62.00;;;;;;5053434;28;20497;-55
2022/08/16 00:12:58;;;;;;;2.95;2.42;;;;;;;;;;5053676;28;20078;-54
2022/08/16 00:15:36;;;;;;;4.18;2.65;;;26.70;61.90;;;;;;5053374;28;20065;-55
2022/08/16 00:18:03;;;;;;;2.30;2.10;;;;;;;;;;5053367;28;20073;-55
2022/08/16 00:20:29;;;;;;;3.60;2.20;;;;;;;;;;5053142;28;20045;-57
2022/08/16 00:22:55;;;;;;;3.10;2.60;;;;;;;;;;5053232;28;20372;-57
2022/08/16 00:25:22;;;;;;;3.55;2.78;;;26.60;61.80;;;;;;5053130;28;20036;-57
2022/08/16 00:27:49;;;;;;;3.42;2.60;;;;;;;;;;5053063;28;20124;-57
2022/08/16 00:30:15;;;;;;;3.33;2.55;;;26.60;61.80;;;;;;5053200;28;20087;-57
2022/08/16 00:32:44;;;;;;;3.47;2.50;;;26.70;61.80;;;;;;5053047;28;20036;-57
2022/08/16 00:35:18;;;;;;;2.70;2.50;;;26.60;62.10;;;;;;5053029;28;20025;-57
2022/08/16 00:37:45;;;;;;;2.72;2.42;;;26.50;61.60;;;;;;5052977;28;20048;-57
2022/08/16 00:40:14;;;;;;;3.00;2.40;;;26.50;62.20;;;;;;5052801;28;20040;-56
2022/08/16 00:42:39;;;;;;;2.60;2.40;;;;;;;;;;5052819;28;20028;-57
2022/08/16 00:45:18;;;;;;;2.92;2.63;;;26.50;61.90;;;;;;5053054;28;20021;-57
2022/08/16 00:47:46;;;;;;;3.05;2.63;;;26.60;62.20;;;;;;5052756;28;20025;-56
2022/08/16 00:50:12;;;;;;;2.80;2.35;;;26.50;62.00;;;;;;5052687;28;20487;-56
2022/08/16 00:52:39;;;;;;;2.72;2.53;;;26.60;62.00;;;;;;5052696;28;20051;-57
2022/08/16 00:55:06;;;;;;;3.10;2.58;;;;;;;;;;5052637;28;20025;-56
2022/08/16 00:57:32;;;;;;;2.67;2.20;;;;;;;;;;5052522;28;20029;-56
2022/08/16 01:00:00;;;;;;;2.88;2.58;;;;;;;;;;5052572;28;20114;-57
2022/08/16 01:02:26;;;;;;;2.50;2.30;;;;;;;;;;5052187;28;20106;-56
2022/08/16 01:04:52;;;;;;;2.67;2.47;;;;;;;;;;5052692;28;20024;-57
2022/08/16 01:07:18;;;;;;;2.92;2.63;;;;;;;;;;5052267;28;20078;-57
2022/08/16 01:09:45;;;;;;;3.00;2.70;;;;;;;;;;5052368;28;20104;-57
2022/08/16 01:12:11;;;;;;;3.17;2.88;;;;;;;;;;5052659;28;20032;-56
2022/08/16 01:14:53;;;;;;;3.10;2.80;;;26.50;62.10;;;;;;5052295;28;20033;-57
2022/08/16 01:17:20;;;;;;;2.67;2.47;;;26.50;60.60;;;;;;5052505;28;20040;-56
2022/08/16 01:19:50;;;;;;;2.75;2.55;;;26.50;62.20;;;;;;5052109;28;20395;-57
2022/08/16 01:22:41;;;;;;;2.80;2.60;;;26.40;56.70;;;;;;5052215;28;20029;-56
2022/08/16 01:25:14;;;;;;;2.83;2.50;;;26.60;56.50;;;;;;5052183;28;20095;-57
2022/08/16 01:28:03;;;;;;;2.78;2.55;;;26.50;62.30;;;;;;5052163;28;20067;-57
2022/08/16 01:30:33;;;;;;;3.42;2.90;;;26.50;62.10;;;;;;5052086;28;20029;-57
2022/08/16 01:33:01;;;;;;;2.85;2.65;;;26.50;62.40;;;;;;5052070;28;20100;-57
2022/08/16 01:35:37;;;;;;;3.45;3.00;;;26.40;61.80;;;;;;5052147;28;20086;-57
2022/08/16 01:38:19;;;;;;;3.28;2.97;;;26.50;57.00;;;;;;5052011;28;20028;-57
2022/08/16 01:40:46;;;;;;;3.28;2.97;;;26.60;61.40;;;;;;5051913;28;20060;-57
2022/08/16 01:43:12;;;;;;;3.42;2.95;;;;;;;;;;5051969;28;20033;-57
2022/08/16 01:45:38;;;;;;;2.75;2.55;;;;;;;;;;5051916;28;20070;-58
2022/08/16 01:48:04;;;;;;;3.25;2.63;;;;;;;;;;5051971;28;20029;-56
2022/08/16 01:50:30;;;;;;;3.00;2.80;;;26.70;59.50;;;;;;5051803;28;20443;-57
2022/08/16 01:52:56;;;;;;;3.58;3.28;;;;;;;;;;5051845;28;20060;-56
2022/08/16 01:55:23;;;;;;;3.25;2.95;;;26.50;62.80;;;;;;5051873;28;20057;-57
2022/08/16 01:57:50;;;;;;;2.85;2.65;;;26.40;62.50;;;;;;5051669;28;20035;-56
2022/08/16 02:00:16;;;;;;;2.90;2.70;;;26.60;60.20;;;;;;5051589;28;20518;-56
2022/08/16 02:02:43;;;;;;;3.78;3.38;;;;;;;;;;5051466;28;20091;-56
2022/08/16 02:05:10;;;;;;;3.58;3.20;;;26.50;62.00;;;;;;5051733;28;20036;-57
2022/08/16 02:07:37;;;;;;;2.65;2.45;;;26.40;62.20;;;;;;5051733;28;20029;-57
2022/08/16 02:10:07;;;;;;;3.20;2.90;;;26.50;62.70;;;;;;5051787;28;20076;-56
2022/08/16 02:12:33;;;;;;;4.00;2.90;;;26.50;59.50;;;;;;5051702;28;20491;-57
2022/08/16 02:14:59;;;;;;;2.97;2.78;;;;;;;;;;5051595;28;20036;-57
2022/08/16 02:17:25;;;;;;;2.75;2.55;;;;;;;;;;5051678;28;20447;-56
2022/08/16 02:19:52;;;;;;;3.83;3.53;;;26.40;62.00;;;;;;5052694;28;20456;-55
2022/08/16 02:22:21;;;;;;;3.22;3.00;;;26.30;62.90;;;;;;5055541;28;20518;-55
2022/08/16 02:24:47;;;;;;;2.95;2.67;;;;;;;;;;5055326;28;20486;-56
2022/08/16 02:27:13;;;;;;;3.33;3.00;;;;;;;;;;5055392;28;20035;-56
2022/08/16 02:29:39;;;;;;;3.22;2.92;;;;;;;;;;5055437;28;20036;-57
2022/08/16 02:32:07;;;;;;;3.63;3.30;;;26.50;61.20;;;;;;5055277;28;20025;-57
2022/08/16 02:34:33;;;;;;;3.15;2.88;;;;;;;;;;5055221;28;20025;-57
2022/08/16 02:36:59;;;;;;;3.78;3.33;;;;;;;;;;5055154;28;20025;-57
2022/08/16 02:39:25;;;;;;;3.03;2.83;;;;;;;;;;5055046;28;20048;-58
2022/08/16 02:41:52;;;;;;;3.10;2.90;;;;;;;;;;5037129;28;20070;-57
2022/08/16 02:44:18;;;;;;;4.25;3.10;;;26.40;62.60;;;;;;5055139;28;20450;-57
2022/08/16 02:46:45;;;;;;;3.50;3.20;;;;;;;;;;5037069;28;20021;-57
2022/08/16 02:49:11;;;;;;;4.07;3.75;;;;;;;;;;5055224;28;20037;-57
2022/08/16 02:51:38;;;;;;;3.85;3.53;;;26.50;63.10;;;;;;5055143;28;20025;-57
2022/08/16 02:54:05;;;;;;;3.53;3.22;;;26.30;62.90;;;;;;5055142;28;20048;-57
2022/08/16 02:56:31;;;;;;;3.92;3.42;;;;;;;;;;5054843;28;20414;-57
2022/08/16 02:58:57;;;;;;;3.90;3.47;;;;;;;;;;5054592;28;20072;-56
2022/08/16 03:01:30;;;;;;;3.65;3.35;;;26.30;58.20;;;;;;5054571;28;20033;-56
2022/08/16 03:03:58;;;;;;;3.90;3.40;;;;;;;;;;5054703;28;20051;-56
2022/08/16 03:06:25;;;;;;;3.53;3.25;;;26.40;60.30;;;;;;5054656;28;20025;-57
2022/08/16 03:08:51;;;;;;;3.55;3.25;;;26.40;63.60;;;;;;5054575;28;20032;-57
2022/08/16 03:11:18;;;;;;;4.00;3.63;;;26.40;63.50;;;;;;5054547;28;20025;-57
2022/08/16 03:13:44;;;;;;;3.58;3.20;;;;;;;;;;5054721;28;20356;-56
2022/08/16 03:16:11;;;;;;;3.67;3.40;;;;;;;;;;5054452;28;20056;-57
2022/08/16 03:18:37;;;;;;;3.70;3.40;;;;;;;;;;5054384;28;20120;-57
2022/08/16 03:21:03;;;;;;;3.55;3.25;;;26.40;62.80;;;;;;5054307;28;20025;-56
2022/08/16 03:23:29;;;;;;;3.83;3.47;;;;;;;;;;5054290;28;20029;-52
2022/08/16 03:25:55;;;;;;;4.32;3.92;;;;;;;;;;5054231;28;20029;-55
2022/08/16 03:28:21;;;;;;;3.60;3.30;;;;;;;;;;5054184;28;20025;-55
2022/08/16 03:30:47;;;;;;;4.00;3.60;;;;;;;;;;5053593;28;20029;-54
2022/08/16 03:33:13;;;;;;;4.13;3.35;;;;;;;;;;5053487;28;20108;-54
2022/08/16 03:35:40;;;;;;;3.60;3.30;;;;;;;;;;5054066;28;20036;-55
2022/08/16 03:38:08;;;;;;;3.85;3.45;;;26.40;63.80;;;;;;5054067;28;20033;-53
2022/08/16 03:40:36;;;;;;;3.85;3.50;;;26.40;63.80;;;;;;5053900;28;20033;-55
2022/08/16 03:43:05;;;;;;;3.70;3.45;;;26.50;64.00;;;;;;5035981;28;20498;-54
2022/08/16 03:45:32;;;;;;;3.90;3.60;;;26.40;63.80;;;;;;5053852;28;20395;-55
2022/08/16 03:47:59;;;;;;;3.75;3.45;;;26.40;61.60;;;;;;5053891;28;20094;-55
2022/08/16 03:50:26;;;;;;;4.20;3.83;;;;;;;;;;5053845;28;20498;-55
2022/08/16 03:52:52;;;;;;;5.55;3.45;;;;;;;;;;5053747;28;20451;-55
2022/08/16 03:55:18;;;;;;;3.70;3.30;;;;;;;;;;5053957;28;20384;-55
2022/08/16 03:57:44;;;;;;;6.32;3.72;;;;;;;;;;5053676;28;20074;-54
2022/08/16 04:00:13;;;;;;;3.97;3.67;;;26.40;64.10;;;;;;5053447;28;20069;-55
2022/08/16 04:02:41;;;;;;;4.63;3.78;;;26.40;64.10;;;;;;5053233;28;20088;-55
2022/08/16 04:05:08;;;;;;;3.90;3.50;;;26.40;64.30;;;;;;5053480;28;20048;-55
2022/08/16 04:07:34;;;;;;;4.05;3.65;;;;;;;;;;5053468;28;20090;-55
2022/08/16 04:10:00;;;;;;;4.50;4.10;;;;;;;;;;5053359;28;20056;-55
2022/08/16 04:12:26;;;;;;;5.60;4.07;;;;;;;;;;5053430;28;20080;-54
2022/08/16 04:14:52;;;;;;;5.03;3.70;;;;;;;;;;5053395;28;20483;-55
2022/08/16 04:17:18;;;;;;;4.50;4.07;;;;;;;;;;5053538;28;20379;-55
2022/08/16 04:19:44;;;;;;;4.55;3.63;;;;;;;;;;5053216;28;20487;-55
2022/08/16 04:22:10;;;;;;;3.88;3.58;;;;;;;;;;5053127;28;20112;-55
2022/08/16 04:24:36;;;;;;;4.32;3.92;;;;;;;;;;5053120;28;20037;-55
2022/08/16 04:27:03;;;;;;;4.10;3.70;;;26.30;61.60;;;;;;5053103;28;20025;-55
2022/08/16 04:29:29;;;;;;;3.65;3.35;;;;;;;;;;5052958;28;20052;-55
2022/08/16 04:31:55;;;;;;;3.70;3.30;;;;;;;;;;5053074;28;20033;-55
2022/08/16 04:34:21;;;;;;;5.05;4.05;;;;;;;;;;5052992;28;20033;-55
2022/08/16 04:36:47;;;;;;;4.38;4.00;;;;;;;;;;5053148;28;20025;-55
2022/08/16 04:39:14;;;;;;;5.40;3.95;;;;;;;;;;5052781;28;20061;-55
2022/08/16 04:41:40;;;;;;;5.65;4.22;;;;;;;;;;5052778;28;20074;-55
2022/08/16 04:44:06;;;;;;;4.72;4.28;;;;;;;;;;5052442;28;20111;-54
2022/08/16 04:46:32;;;;;;;3.72;3.42;;;;;;;;;;5052675;28;20142;-55
2022/08/16 04:48:58;;;;;;;4.25;3.85;;;;;;;;;;5052725;28;20166;-55
2022/08/16 04:51:24;;;;;;;3.97;3.67;;;;;;;;;;5052698;28;20480;-55
2022/08/16 04:53:51;;;;;;;4.60;3.50;;;;;;;;;;5052614;28;20036;-56
2022/08/16 04:56:18;;;;;;;4.85;4.28;;;26.40;64.20;;;;;;5052559;28;20021;-55
2022/08/16 04:58:44;;;;;;;3.92;3.60;;;;;;;;;;5052405;28;20475;-55
2022/08/16 05:01:10;;;;;;;4.28;3.88;;;;;;;;;;5052400;28;20032;-55
2022/08/16 05:03:37;;;;;;;4.40;3.53;;;;;;;;;;5052347;28;20051;-56
2022/08/16 05:06:03;;;;;;;4.55;4.15;;;;;;;;;;5052425;28;20082;-55
2022/08/16 05:08:29;;;;;;;4.50;3.70;;;26.30;64.00;;;;;;5052352;28;20036;-56
2022/08/16 05:10:55;;;;;;;4.20;3.90;;;;;;;;;;5052737;28;20044;-57
2022/08/16 05:13:22;;;;;;;4.95;3.47;;;;;;;;;;5052280;28;20386;-56
2022/08/16 05:15:48;;;;;;;4.20;3.85;;;;;;;;;;5052285;28;20032;-56
2022/08/16 05:18:14;;;;;;;4.55;4.15;;;;;;;;;;5052207;28;20549;-56
2022/08/16 05:20:40;;;;;;;4.57;4.18;;;;;;;;;;5052152;28;20044;-56
2022/08/16 05:23:06;;;;;;;5.45;4.18;;;;;;;;;;5052133;28;20021;-56
2022/08/16 05:25:32;;;;;;;3.85;3.47;;;;;;;;;;5052069;28;20029;-56
2022/08/16 05:27:58;;;;;;;4.53;4.13;;;;;;;;;;5052431;28;20025;-56
2022/08/16 05:30:24;;;;;;;4.40;3.92;;;;;;;;;;5051960;28;20479;-56
2022/08/16 05:32:50;;;;;;;5.13;4.60;;;;;;;;;;5052084;28;20016;-56
2022/08/16 05:35:17;;;;;;;5.78;4.53;;;26.40;61.60;;;;;;5052118;28;20480;-56
2022/08/16 05:37:43;;;;;;;5.15;4.30;;;26.20;61.30;;;;;;5052064;28;20109;-56
2022/08/16 05:40:10;;;;;;;6.05;4.25;;;26.30;64.60;;;;;;5052105;28;20403;-57
2022/08/16 05:42:36;;;;;;;4.75;4.25;;;;;;;;;;5052045;28;20063;-55
2022/08/16 05:45:03;;;;;;;4.50;3.47;;;26.30;64.70;;;;;;5052179;28;20064;-55
2022/08/16 05:47:29;;;;;;;7.63;5.40;;;;;;;;;;5052120;28;20032;-57
2022/08/16 05:49:55;;;;;;;9.00;5.82;;;;;;;;;;5052040;28;20483;-55
2022/08/16 05:52:21;;;;;;;6.13;5.00;;;;;;;;;;5051992;28;20025;-54
2022/08/16 05:54:48;;;;;;;10.75;5.95;;;;;;;;;;5052862;28;20025;-55
2022/08/16 05:57:16;;;;;;;10.63;5.53;;;26.30;64.60;;;;;;5056106;28;20024;-55
2022/08/16 05:59:42;;;;;;;8.57;5.13;;;;;;;;;;5056162;28;20459;-55
2022/08/16 06:02:07;;;;;;;9.07;5.25;;;;;;;;;;5055769;28;20073;-56
2022/08/16 06:04:34;;;;;;;6.82;5.03;;;;;;;;;;5055882;28;20102;-56
2022/08/16 06:07:04;;;;;;;8.23;5.72;;;;;;;;;;5055918;28;20025;-56
2022/08/16 06:09:30;;;;;;;11.63;6.25;;;;;;;;;;5056150;28;20032;-56
2022/08/16 06:11:56;;;;;;;7.00;5.63;;;;;;;;;;5055775;28;20387;-56
2022/08/16 06:14:22;;;;;;;8.63;5.88;;;;;;;;;;5055631;28;20082;-56
2022/08/16 06:16:48;;;;;;;11.65;6.00;;;;;;;;;;5055537;28;20477;-56
2022/08/16 06:19:14;;;;;;;8.57;6.05;;;;;;;;;;5055566;28;20099;-57
2022/08/16 06:21:40;;;;;;;10.10;6.93;;;;;;;;;;5055479;28;20025;-56
2022/08/16 06:24:06;;;;;;;11.25;8.05;;;;;;;;;;5055636;28;20134;-58
2022/08/16 06:26:32;;;;;;;9.63;6.60;;;;;;;;;;5055418;28;20032;-58
2022/08/16 06:28:58;;;;;;;12.38;7.60;;;;;;;;;;5055433;28;20100;-57
2022/08/16 06:31:24;;;;;;;16.17;8.43;;;;;;;;;;5055449;28;20395;-57
2022/08/16 06:33:50;;;;;;;16.20;9.63;;;;;;;;;;5055327;28;20095;-58
2022/08/16 06:36:16;;;;;;;13.75;9.60;;;;;;;;;;5055391;28;20078;-57
2022/08/16 06:38:43;;;;;;;14.05;8.05;;;;;;;;;;5055115;28;20029;-56
2022/08/16 06:41:09;;;;;;;14.27;8.48;;;26.50;64.10;;;;;;5055298;28;20574;-58
2022/08/16 06:43:36;;;;;;;11.75;7.63;;;26.50;66.10;;;;;;5055286;28;20060;-57
2022/08/16 06:46:08;;;;;;;12.35;7.55;;;26.70;66.40;;;;;;5055118;28;20475;-57
2022/08/16 06:48:34;;;;;;;10.23;7.07;;;;;;;;;;5055117;28;20064;-58
2022/08/16 06:51:03;;;;;;;9.10;7.20;;;26.40;65.90;;;;;;5054972;28;20029;-57
2022/08/16 06:53:32;;;;;;;10.65;7.40;;;;;;;;;;5055026;28;20065;-56
2022/08/16 06:55:58;;;;;;;13.07;7.00;;;;;;;;;;5054848;28;20487;-55
2022/08/16 06:58:24;;;;;;;7.57;6.15;;;;;;;;;;5054891;28;20029;-56
2022/08/16 07:00:50;;;;;;;8.73;6.35;;;;;;;;;;5054667;28;20060;-56
2022/08/16 07:03:19;;;;;;;10.90;6.43;;;;;;;;;;5054641;28;20044;-56
2022/08/16 07:05:45;;;;;;;7.82;6.15;;;;;;;;;;5054541;28;20035;-57
2022/08/16 07:08:11;;;;;;;10.65;6.28;;;;;;;;;;5054756;28;20032;-56
2022/08/16 07:10:37;;;;;;;11.15;6.47;;;;;;;;;;5054605;28;20101;-56
2022/08/16 07:13:04;;;;;;;6.85;6.15;;;;;;;;;;5054752;28;20100;-55
2022/08/16 07:15:30;;;;;;;7.57;6.15;;;;;;;;;;5054610;28;20025;-55
2022/08/16 07:17:58;;;;;;;9.38;6.20;;;;;;;;;;5054544;28;20039;-56
2022/08/16 07:20:26;;;;;;;7.70;6.03;;;;;;;;;;5054457;28;20043;-57
2022/08/16 07:22:54;;;;;;;8.57;6.20;;;;;;;;;;5054404;28;20021;-57
2022/08/16 07:25:21;;;;;;;7.40;5.60;;;26.60;63.40;;;;;;5054436;28;20025;-56
2022/08/16 07:27:48;;;;;;;7.70;6.28;;;;;;;;;;5054259;28;20091;-56
2022/08/16 07:30:15;;;;;;;8.65;5.55;;;26.60;66.70;;;;;;5054313;28;20025;-56
2022/08/16 07:32:41;;;;;;;6.57;5.90;;;;;;;;;;5054413;28;20391;-55
2022/08/16 07:35:07;;;;;;;5.80;5.30;;;;;;;;;;5054140;28;20025;-55
2022/08/16 07:37:33;;;;;;;6.38;5.78;;;;;;;;;;5054140;28;20033;-57
2022/08/16 07:40:00;;;;;;;7.72;5.90;;;;;;;;;;5054005;28;20060;-56
2022/08/16 07:42:26;;;;;;;7.82;6.03;;;;;;;;;;5054109;28;20021;-56
2022/08/16 07:44:52;;;;;;;11.85;7.68;;;;;;;;;;5053837;28;20060;-55
2022/08/16 07:47:18;;;;;;;10.02;8.57;;;;;;;;;;5053962;28;20031;-56
2022/08/16 07:49:44;;;;;;;15.15;9.98;;;;;;;;;;5053965;28;20025;-56
2022/08/16 07:52:10;;;;;;;16.00;9.13;;;;;;;;;;5053793;28;20032;-56
2022/08/16 07:54:36;;;;;;;11.50;8.60;;;;;;;;;;5053814;28;20104;-56
2022/08/16 07:57:02;;;;;;;11.48;9.00;;;;;;;;;;5053802;28;20491;-56
2022/08/16 07:59:29;;;;;;;12.05;9.73;;;;;;;;;;5053724;28;20051;-55
2022/08/16 08:01:55;;;;;;;10.15;8.43;;;;;;;;;;5053434;28;20039;-55
2022/08/16 08:04:21;;;;;;;11.80;8.68;;;;;;;;;;5053714;28;20461;-56
2022/08/16 08:06:47;;;;;;;13.80;8.32;;;;;;;;;;5053745;28;20025;-57
2022/08/16 08:09:13;;;;;;;11.52;8.32;;;;;;;;;;5053429;28;20399;-56
2022/08/16 08:11:39;;;;;;;12.50;8.57;;;;;;;;;;5053629;28;20044;-55
2022/08/16 08:14:05;;;;;;;12.43;8.85;;;;;;;;;;5053583;28;20033;-55
2022/08/16 08:16:31;;;;;;;10.77;8.25;;;26.80;67.40;;;;;;5053573;28;20036;-56
2022/08/16 08:18:59;;;;;;;11.45;9.38;;;26.70;68.30;;;;;;5052824;28;20061;-56
2022/08/16 08:21:25;;;;;;;10.27;8.55;;;;;;;;;;5035580;28;20118;-56
2022/08/16 08:23:51;;;;;;;10.45;8.52;;;26.80;68.20;;;;;;5053547;28;20029;-55
2022/08/16 08:26:18;;;;;;;12.98;8.25;;;;;;;;;;5035327;28;20051;-55
2022/08/16 08:28:44;;;;;;;13.57;7.53;;;;;;;;;;5053215;28;20074;-56
2022/08/16 08:31:10;;;;;;;11.48;7.70;;;;;;;;;;5053159;28;20025;-56
2022/08/16 08:33:36;;;;;;;9.43;7.57;;;26.80;67.30;;;;;;5053202;28;20039;-55
2022/08/16 08:36:06;;;;;;;15.45;9.63;;;27.00;68.40;;;;;;5053035;28;20032;-55
2022/08/16 08:38:32;;;;;;;16.15;10.43;;;;;;;;;;5053012;28;20046;-55
2022/08/16 08:40:58;;;;;;;17.33;12.48;;;;;;;;;;5053017;28;20087;-55
2022/08/16 08:43:24;;;;;;;17.13;12.68;;;;;;;;;;5052869;28;20037;-56
2022/08/16 08:45:54;;;;;;;17.17;11.07;;;26.80;69.40;;;;;;5052941;28;20025;-55
2022/08/16 08:48:20;;;;;;;16.08;10.50;;;;;;;;;;5052831;28;20024;-56
2022/08/16 08:50:46;;;;;;;17.58;10.77;;;;;;;;;;5052935;28;20032;-56
2022/08/16 08:53:12;;;;;;;13.00;10.07;;;;;;;;;;5052882;28;20112;-56
2022/08/16 08:55:39;;;;;;;11.65;10.40;;;;;;;;;;5052720;28;20116;-56
2022/08/16 08:58:04;;;;;;;14.15;10.35;;;;;;;;;;5052694;28;20033;-56
2022/08/16 09:00:30;;;;;;;13.38;9.70;;;;;;;;;;5052578;28;20064;-55
2022/08/16 09:02:57;;;;;;;14.95;10.60;;;26.90;67.60;;;;;;5052385;28;20114;-55
2022/08/16 09:05:25;;;;;;;15.80;10.15;;;26.90;67.00;;;;;;5052532;28;20036;-53
2022/08/16 09:07:54;;;;;;;15.45;11.32;;;26.80;69.40;;;;;;5034656;28;20357;-55
2022/08/16 09:10:20;;;;;;;13.65;9.63;;;;;;;;;;5052823;28;20389;-54
2022/08/16 09:12:46;;;;;;;16.33;11.23;;;;;;;;;;5052480;28;20043;-51
2022/08/16 09:15:15;;;;;;;18.10;11.00;;;26.90;69.50;;;;;;5052464;28;20111;-54
2022/08/16 09:17:41;;;;;;;15.95;11.55;;;;;;;;;;5052392;28;20104;-54
2022/08/16 09:20:09;;;;;;;17.30;10.45;;;27.00;69.70;;;;;;5052294;28;20045;-56
2022/08/16 09:22:35;;;;;;;14.20;9.90;;;;;;;;;;5052329;28;20024;-54
2022/08/16 09:25:01;;;;;;;14.88;9.88;;;;;;;;;;5052639;28;20112;-56
2022/08/16 09:27:28;;;;;;;12.82;9.63;;;;;;;;;;5052369;28;20464;-55
2022/08/16 09:29:54;;;;;;;14.15;10.63;;;;;;;;;;5051357;28;20025;-55
2022/08/16 09:32:20;;;;;;;14.05;10.32;;;;;;;;;;5052136;28;20033;-54
2022/08/16 09:34:46;;;;;;;14.48;10.48;;;;;;;;;;5052472;28;20395;-56
2022/08/16 09:37:14;;;;;;;15.70;9.90;;;;;;;;;;5052150;28;20103;-56
2022/08/16 09:39:40;;;;;;;16.52;10.55;;;;;;;;;;5052014;28;20048;-56
2022/08/16 09:42:06;;;;;;;13.50;11.10;;;;;;;;;;5052089;28;20021;-55
2022/08/16 09:44:32;;;;;;;15.30;10.07;;;;;;;;;;5052071;28;20032;-56
2022/08/16 09:46:58;;;;;;;11.82;9.90;;;;;;;;;;5052143;28;20033;-56
2022/08/16 09:49:25;;;;;;;12.02;8.52;;;27.30;66.80;;;;;;5051951;28;20033;-56
2022/08/16 09:51:53;;;;;;;13.95;10.85;;;27.20;66.70;;;;;;5052020;28;20013;-55
2022/08/16 09:54:20;;;;;;;13.32;9.52;;;27.30;69.00;;;;;;5052056;28;20489;-56
2022/08/16 09:56:46;;;;;;;11.60;9.00;;;;;;;;;;5051994;28;20024;-56
2022/08/16 09:59:14;;;;;;;13.05;8.38;;;;;;;;;;5052157;28;20040;-55
2022/08/16 10:01:41;;;;;;;13.43;8.40;;;;;;;;;;5051735;28;20041;-56
2022/08/16 10:04:07;;;;;;;12.25;7.47;;;;;;;;;;5051973;28;20036;-55
2022/08/16 10:06:33;;;;;;;12.45;8.15;;;27.40;69.30;;;;;;5051872;28;20082;-56
2022/08/16 10:08:59;;;;;;;11.57;8.88;;;;;;;;;;5051816;28;20025;-55
2022/08/16 10:14:10;;;;;;;11.15;8.18;;;;;;;;;;5052079;28;20076;-56
2022/08/16 10:16:36;;;;;;;15.38;8.68;;;;;;;;;;5051970;28;20046;-56
2022/08/16 10:19:02;;;;;;;14.10;8.68;;;;;;;;;;5051670;28;20033;-56
2022/08/16 10:21:29;;;;;;;11.88;8.80;;;;;;;;;;5051722;28;20024;-56
2022/08/16 10:23:55;;;;;;;13.25;9.45;;;;;;;;;;5051817;28;20104;-54
2022/08/16 10:26:25;;;;;;;12.98;8.90;;;27.20;68.40;;;;;;5051690;28;20033;-56
2022/08/16 10:28:51;;;;;;;13.32;8.95;;;;;;;;;;5051598;28;20036;-55
2022/08/16 10:31:17;;;;;;;16.67;10.48;;;;;;;;;;5051676;28;20035;-55
2022/08/16 10:33:44;;;;;;;15.20;9.85;;;27.40;66.00;;;;;;5051826;28;20442;-55
2022/08/16 10:36:12;;;;;;;15.13;9.80;;;;;;;;;;5051407;28;20029;-55
2022/08/16 10:38:39;;;;;;;12.73;9.25;;;27.40;68.00;;;;;;5051328;28;20032;-55
2022/08/16 10:41:06;;;;;;;12.30;8.75;;;27.60;68.00;;;;;;5052782;28;20048;-55
2022/08/16 10:43:33;;;;;;;13.85;9.45;;;27.40;64.60;;;;;;5055117;28;20029;-56
2022/08/16 10:46:00;;;;;;;12.80;9.63;;;;;;;;;;5055275;28;20390;-55
2022/08/16 10:48:26;;;;;;;11.52;10.38;;;;;;;;;;5055073;28;20036;-56
2022/08/16 10:50:53;;;;;;;14.07;9.95;;;;;;;;;;5055159;28;20029;-55
2022/08/16 10:53:19;;;;;;;13.85;9.07;;;;;;;;;;5055051;28;20472;-55
2022/08/16 10:55:46;;;;;;;14.95;9.20;;;;;;;;;;5055009;28;20111;-56
2022/08/16 10:58:14;;;;;;;14.05;8.38;;;27.40;66.50;;;;;;5055002;28;20341;-54
2022/08/16 11:00:40;;;;;;;13.57;8.90;;;;;;;;;;5054935;28;20029;-55
2022/08/16 11:03:08;;;;;;;16.85;8.60;;;27.40;63.20;;;;;;5054546;28;20048;-55
2022/08/16 11:05:36;;;;;;;11.60;8.60;;;27.50;66.20;;;;;;5054703;28;20100;-55
2022/08/16 11:08:02;;;;;;;10.18;8.05;;;;;;;;;;5054573;28;20025;-53
2022/08/16 11:10:35;;;;;;;8.57;7.03;;;27.50;66.50;;;;;;5054556;28;20438;-55
2022/08/16 11:13:01;;;;;;;13.73;7.22;;;;;;;;;;5054512;28;20036;-54
2022/08/16 11:15:27;;;;;;;9.80;5.95;;;;;;;;;;5054606;28;20403;-55
2022/08/16 11:17:53;;;;;;;10.93;6.57;;;;;;;;;;5054666;28;20032;-55
2022/08/16 11:20:20;;;;;;;8.65;6.40;;;;;;;;;;5054377;28;20073;-56
2022/08/16 11:22:47;;;;;;;11.82;5.38;;;27.60;66.00;;;;;;5054365;28;20021;-56
2022/08/16 11:25:16;;;;;;;7.55;5.70;;;27.60;65.90;;;;;;5054235;28;20053;-55
2022/08/16 11:27:42;;;;;;;8.13;5.95;;;;;;;;;;5054138;28;20033;-55
2022/08/16 11:30:12;;;;;;;8.18;5.47;;;27.70;65.80;;;;;;5054326;28;20029;-55
2022/08/16 11:32:38;;;;;;;10.45;5.88;;;;;;;;;;5054405;28;20025;-54
2022/08/16 11:35:08;;;;;;;9.93;5.65;;;27.70;65.60;;;;;;5054253;28;20029;-56
2022/08/16 11:37:34;;;;;;;;;;;27.70;66.20;;;;;;5055052;28;20369;-55
2022/08/16 11:40:01;;;;;;;7.70;5.30;;;27.50;63.80;;;;;;5054105;28;19920;-55
2022/08/16 11:42:27;;;;;;;12.27;5.95;;;;;;;;;;5054119;28;20032;-56
2022/08/16 11:44:53;;;;;;;8.40;5.80;;;;;;;;;;5036162;28;20033;-55
2022/08/16 11:47:19;;;;;;;8.32;5.43;;;;;;;;;;5054048;28;20147;-55
2022/08/16 11:49:45;;;;;;;7.80;5.20;;;;;;;;;;5054004;28;20032;-56
2022/08/16 11:52:11;;;;;;;10.63;5.63;;;;;;;;;;5052926;28;20104;-55
2022/08/16 11:54:39;;;;;;;7.78;5.65;;;;;;;;;;5053842;28;20060;-55
2022/08/16 11:57:05;;;;;;;9.18;5.80;;;;;;;;;;5053800;28;20107;-55
2022/08/16 11:59:32;;;;;;;10.20;6.00;;;;;;;;;;5053667;28;20475;-55
2022/08/16 12:01:58;;;;;;;9.63;5.07;;;;;;;;;;5053385;28;20542;-55
2022/08/16 12:04:25;;;;;;;5.72;5.15;;;;;;;;;;5053724;28;20064;-55
2022/08/16 12:06:51;;;;;;;7.18;5.65;;;27.80;62.70;;;;;;5053607;28;20078;-55
2022/08/16 12:09:18;;;;;;;10.02;5.53;;;27.80;64.90;;;;;;5053518;28;20032;-55
2022/08/16 12:11:44;;;;;;;6.05;5.15;;;;;;;;;;5053731;28;20109;-55
2022/08/16 12:14:10;;;;;;;8.88;4.88;;;;;;;;;;5053435;28;20465;-55
2022/08/16 12:16:37;;;;;;;11.65;5.32;;;;;;;;;;5053527;28;20035;-56
2022/08/16 12:19:06;;;;;;;8.02;5.03;;;27.80;64.70;;;;;;5053296;28;20032;-55
2022/08/16 12:21:32;;;;;;;6.60;5.18;;;;;;;;;;5053185;28;20051;-55
2022/08/16 12:23:58;;;;;;;6.63;5.07;;;;;;;;;;5053138;28;20029;-56
2022/08/16 12:26:24;;;;;;;8.25;5.07;;;;;;;;;;5053117;28;20070;-56
2022/08/16 12:28:52;;;;;;;6.43;4.78;;;;;;;;;;5053055;28;20036;-56
2022/08/16 12:31:18;;;;;;;7.25;4.95;;;;;;;;;;5053022;28;20021;-55
2022/08/16 12:33:44;;;;;;;9.82;5.32;;;;;;;;;;5052944;28;20409;-56
2022/08/16 12:36:10;;;;;;;7.28;4.80;;;;;;;;;;5052839;28;20033;-56
2022/08/16 12:38:36;;;;;;;7.32;4.88;;;;;;;;;;5052850;28;20033;-55
2022/08/16 12:41:03;;;;;;;5.55;4.65;;;;;;;;;;5052759;28;20491;-55
2022/08/16 12:43:30;;;;;;;5.75;5.07;;;;;;;;;;5052846;28;20098;-55
2022/08/16 12:45:56;;;;;;;9.32;5.38;;;;;;;;;;5052869;28;20033;-55
2022/08/16 12:51:13;;;;;;;6.10;4.85;;;27.90;63.60;;;;;;5053080;28;20569;-55
2022/08/16 12:53:39;;;;;;;6.60;4.80;;;27.70;60.30;;;;;;5052748;28;20051;-55
2022/08/16 12:56:06;;;;;;;7.97;4.88;;;28.00;63.80;;;;;;5052642;28;20507;-56
2022/08/16 12:58:33;;;;;;;5.38;4.85;;;27.80;58.20;;;;;;5052696;28;20451;-55
2022/08/16 13:00:59;;;;;;;5.40;4.38;;;;;;;;;;5052420;28;20103;-55
2022/08/16 13:03:27;;;;;;;6.57;4.90;;;;;;;;;;5052147;28;20503;-55
2022/08/16 13:05:53;;;;;;;7.65;4.80;;;;;;;;;;5052498;28;20025;-55
2022/08/16 13:08:19;;;;;;;8.02;4.55;;;;;;;;;;5052489;28;20037;-55
2022/08/16 13:10:47;;;;;;;7.30;4.38;;;27.90;63.50;;;;;;5052484;28;20495;-55
2022/08/16 13:13:23;;;;;;;5.22;4.72;;;27.90;62.50;;;;;;5052201;28;20091;-56
2022/08/16 13:15:49;;;;;;;7.30;5.10;;;;;;;;;;5052554;28;20533;-55
2022/08/16 13:18:15;;;;;;;5.28;4.78;;;;;;;;;;5052295;28;20047;-55
2022/08/16 13:20:41;;;;;;;5.13;4.60;;;;;;;;;;5052206;28;20477;-55
2022/08/16 13:23:10;;;;;;;9.63;5.07;;;27.90;63.10;;;;;;5052226;28;20029;-55
2022/08/16 13:25:37;;;;;;;6.00;4.72;;;27.80;62.90;;;;;;5052238;28;20048;-54
2022/08/16 13:28:04;;;;;;;7.28;4.28;;;;;;;;;;5052647;28;20414;-55
2022/08/16 13:30:36;;;;;;;6.63;4.65;;;27.80;63.00;;;;;;5052148;28;20090;-54
2022/08/16 13:33:02;;;;;;;9.30;4.78;;;;;;;;;;5052110;28;20575;-56
2022/08/16 13:35:29;;;;;;;7.60;4.63;;;;;;;;;;5052100;28;20060;-55
2022/08/16 13:37:55;;;;;;;6.32;4.60;;;;;;;;;;5052149;28;20075;-55
2022/08/16 13:40:21;;;;;;;5.07;4.57;;;;;;;;;;5051951;28;20561;-55
2022/08/16 13:42:48;;;;;;;8.00;4.55;;;;;;;;;;5052053;28;20031;-55
2022/08/16 13:45:15;;;;;;;8.93;4.35;;;27.90;62.50;;;;;;5052040;28;20029;-55
2022/08/16 13:47:41;;;;;;;5.97;4.85;;;;;;;;;;5052086;28;20017;-54
2022/08/16 13:50:08;;;;;;;5.38;4.70;;;28.00;62.10;;;;;;5052223;28;20075;-53
2022/08/16 13:52:35;;;;;;;7.35;4.40;;;;;;;;;;5052021;28;20345;-56
2022/08/16 13:55:01;;;;;;;5.25;4.20;;;27.80;59.00;;;;;;5051842;28;20083;-54
2022/08/16 13:57:27;;;;;;;5.40;4.57;;;;;;;;;;5051841;28;20025;-55
2022/08/16 13:59:53;;;;;;;10.27;4.38;;;;;;;;;;5051863;28;20037;-55